Spadeadam Airport, United Kingdom

12:30 AM GMT on February 13, 2016 (GMT +0000)
South Tynedale | | Change Station
CLOSE
Current Station
Personal Weather Station
Location: Lambley,
Elevation: 610 ft
Nearby Weather Stations

Elev 610 ft 54.92 °N, 2.51 °W | Updated 43 seconds ago

Scattered Clouds
Scattered Clouds
32.2 °F
Feels Like 32 °F
N
0.4
Wind Variable Wind from SSW
Gusts 2.5 mph

Today
High -- | Low -- °F
--% Chance of Precip.
Yesterday
High -- | Low -- °F
Precip. -- in
Pressure 29.39 in
Visibility 6.2 miles
Clouds Scattered Clouds 2000 ft
Windchill 32 °F
Dew Point 30 °F
Humidity 91%
Rainfall 0.00 in
Snow Depth Not available.
7:38 AM 5:11 PM
Waxing Crescent, 25% visible
METAR EGNT 130020Z 32001KT 9999 SCT020 01/M00 Q0995
Pressure 29.39 in
Visibility 6.2 miles
Clouds Scattered Clouds 2000 ft
Windchill 32 °F
Dew Point 30 °F
Humidity 91%
Rainfall 0.00 in
Snow Depth Not available.
7:38 AM 5:11 PM
Waxing Crescent, 25% visible
METAR EGNT 130020Z 32001KT 9999 SCT020 01/M00 Q0995

10-Day Weather Forecast

Almanac

Astronomy

Feb. 13, 2016 Rise Set
Actual Time
Civil Twilight
Nautical Twilight
Astronomical Twilight
Moon
Length of Visible Light
Length of Day
Tomorrow will be .
, % of the Moon is Illuminated

Today's Extremes

Country Highs Country Lows

Community

WunderPhotos

Upload Photos

1,892,439 photos uploaded!

WunderBlog® & News

Nearby

Air Quality

  Air Quality AQ Index Pollutant
Not available.

Snow Depth

Station Depth Elevation

Earthquake Activity

City Distance Mag. Time & Date
Minimum magnitude displayed is 2.5.

Coastal Water Temperatures

Place Temperature

Stations

Nearby Weather Stations

Station Location Temp. Windchill Dew Point Humidity Wind Precip. Elev Updated Type